Time;durP1;ratioP1;P1;durP2;ratioP2;P2;SDS_P1;SDS_P2;PMS_P1;PMS_P2;Temp;Humidity;BMP_temperature;BMP_pressure;BME280_temperature;BME280_humidity;BME280_pressure;Samples;Min_cycle;Max_cycle;Signal;HPM_P1;HPM_P2
2023/05/05 00:01:25;;;;;;;7.93;5.97;;;19.30;79.00;;;;;;6125976;23;20076;-75
2023/05/05 00:03:51;;;;;;;7.93;6.15;;;19.20;78.90;;;;;;6126324;23;19998;-76
2023/05/05 00:06:17;;;;;;;6.85;5.00;;;19.30;79.20;;;;;;6126454;23;20009;-75
2023/05/05 00:08:42;;;;;;;7.00;5.72;;;19.20;79.00;;;;;;6127472;23;20479;-75
2023/05/05 00:11:08;;;;;;;7.10;5.78;;;19.20;79.20;;;;;;6126773;23;20006;-75
2023/05/05 00:13:34;;;;;;;5.50;4.80;;;19.20;79.50;;;;;;6125964;23;20009;-75
2023/05/05 00:16:00;;;;;;;8.20;6.03;;;19.20;79.50;;;;;;6126144;23;20056;-75
2023/05/05 00:18:25;;;;;;;9.18;5.20;;;19.20;79.50;;;;;;6127200;23;20006;-76
2023/05/05 00:20:51;;;;;;;5.22;4.68;;;19.20;79.40;;;;;;6126927;23;20026;-75
2023/05/05 00:23:18;;;;;;;7.70;5.70;;;19.20;79.40;;;;;;6125481;23;20002;-75
2023/05/05 00:25:44;;;;;;;7.47;5.93;;;19.20;79.40;;;;;;6126419;23;20006;-75
2023/05/05 00:28:10;;;;;;;7.20;5.40;;;19.10;79.30;;;;;;6126659;23;20405;-75
2023/05/05 00:30:38;;;;;;;6.95;5.82;;;19.10;79.20;;;;;;6125341;23;20006;-75
2023/05/05 00:33:03;;;;;;;7.82;6.03;;;19.10;79.00;;;;;;6125670;23;20002;-76
2023/05/05 00:35:29;;;;;;;8.27;5.82;;;19.10;79.10;;;;;;6126655;23;20081;-75
2023/05/05 00:37:55;;;;;;;8.73;5.57;;;19.10;79.40;;;;;;6126158;23;20002;-75
2023/05/05 00:40:20;;;;;;;8.75;5.80;;;19.10;79.30;;;;;;6125859;23;20526;-76
2023/05/05 00:42:49;;;;;;;7.70;5.80;;;19.10;79.40;;;;;;6126201;23;20089;-75
2023/05/05 00:45:16;;;;;;;8.88;5.70;;;19.00;79.50;;;;;;6126294;23;19998;-75
2023/05/05 00:47:46;;;;;;;8.38;5.82;;;19.00;79.20;;;;;;6126675;23;20026;-76
2023/05/05 00:50:26;;;;;;;9.27;5.75;;;19.00;79.60;;;;;;6126623;23;20037;-75
2023/05/05 00:52:54;;;;;;;5.00;4.40;;;19.00;79.00;;;;;;6126000;23;20030;-75
2023/05/05 00:55:20;;;;;;;6.18;5.20;;;19.00;78.80;;;;;;6126090;23;20425;-75
2023/05/05 00:57:48;;;;;;;6.82;4.43;;;19.00;78.90;;;;;;6126010;23;20429;-75
2023/05/05 01:00:14;;;;;;;5.68;5.10;;;19.00;78.80;;;;;;6126099;23;19998;-75
2023/05/05 01:02:40;;;;;;;6.90;4.88;;;19.00;78.60;;;;;;6125651;23;20053;-75
2023/05/05 01:05:10;;;;;;;5.55;4.93;;;18.90;78.10;;;;;;6125954;23;19998;-75
2023/05/05 01:07:42;;;;;;;;;;;18.90;78.40;;;;;;6126891;23;20002;-76
2023/05/05 01:10:13;;;;;;;5.95;4.72;;;18.90;78.30;;;;;;6125549;23;19901;-75
2023/05/05 01:13:04;;;;;;;6.38;4.85;;;18.80;78.20;;;;;;6126257;23;20084;-76
2023/05/05 01:15:44;;;;;;;5.75;4.90;;;18.80;77.90;;;;;;6126313;23;20006;-75
2023/05/05 01:18:44;;;;;;;6.97;4.30;;;18.80;77.60;;;;;;6126372;23;20005;-76
2023/05/05 01:21:28;;;;;;;5.10;4.60;;;18.80;77.40;;;;;;6126375;23;19998;-75
2023/05/05 01:24:19;;;;;;;6.55;4.95;;;18.80;77.40;;;;;;6099796;23;20030;-75
2023/05/05 01:26:59;;;;;;;5.88;4.07;;;18.80;77.40;;;;;;6126918;23;20073;-75
2023/05/05 01:29:53;;;;;;;7.40;4.40;;;18.80;77.20;;;;;;6125603;23;20009;-75
2023/05/05 01:32:26;;;;;;;5.13;3.90;;;18.70;76.90;;;;;;6126644;23;20429;-75
2023/05/05 01:35:01;;;;;;;6.72;5.03;;;18.70;76.60;;;;;;6125616;23;20005;-75
2023/05/05 01:37:35;;;;;;;4.93;4.22;;;18.70;76.60;;;;;;6125449;23;20096;-75
2023/05/05 01:40:06;;;;;;;5.53;4.45;;;18.70;76.10;;;;;;6125860;23;20013;-75
2023/05/05 01:42:34;;;;;;;6.13;4.78;;;18.70;75.90;;;;;;6124885;23;20037;-75
2023/05/05 01:45:02;;;;;;;4.40;4.00;;;18.60;75.70;;;;;;6125611;23;20033;-74
2023/05/05 01:47:28;;;;;;;7.13;4.72;;;18.60;75.80;;;;;;6125500;23;20425;-75
2023/05/05 01:49:54;;;;;;;5.68;4.80;;;18.60;75.70;;;;;;6125904;23;20006;-74
2023/05/05 01:52:22;;;;;;;5.10;4.40;;;18.60;75.80;;;;;;6125427;23;20421;-74
2023/05/05 01:54:49;;;;;;;6.03;5.43;;;18.50;75.60;;;;;;6126293;23;20006;-75
2023/05/05 01:57:16;;;;;;;6.10;4.65;;;18.50;75.80;;;;;;6125004;23;20010;-75
2023/05/05 01:59:42;;;;;;;6.20;5.35;;;18.50;75.70;;;;;;6125307;23;20421;-75
2023/05/05 02:02:11;;;;;;;6.28;4.82;;;18.50;76.00;;;;;;6125236;23;20212;-75
2023/05/05 02:04:41;;;;;;;5.97;5.38;;;18.50;76.40;;;;;;6125952;23;20298;-75
2023/05/05 02:07:07;;;;;;;;;;;18.50;76.50;;;;;;6126448;23;19998;-76
2023/05/05 02:09:35;;;;;;;7.32;5.85;;;18.50;76.50;;;;;;6125656;23;19908;-75
2023/05/05 02:12:02;;;;;;;8.82;6.32;;;18.40;77.00;;;;;;6125561;23;20744;-75
2023/05/05 02:14:29;;;;;;;8.18;6.45;;;18.40;77.20;;;;;;6126022;23;20017;-75
2023/05/05 02:16:56;;;;;;;7.38;6.22;;;18.40;77.40;;;;;;6124550;23;20060;-75
2023/05/05 02:19:31;;;;;;;10.10;5.60;;;18.40;77.50;;;;;;6125301;23;20452;-75
2023/05/05 02:21:57;;;;;;;7.43;5.90;;;18.30;77.50;;;;;;6125038;23;19998;-75
2023/05/05 02:24:23;;;;;;;9.52;5.43;;;18.30;77.80;;;;;;6125976;23;20278;-75
2023/05/05 02:26:51;;;;;;;7.68;6.15;;;18.20;78.00;;;;;;6125107;23;20056;-75
2023/05/05 02:29:29;;;;;;;7.53;6.10;;;18.10;78.20;;;;;;6099926;23;20002;-75
2023/05/05 02:32:01;;;;;;;6.28;5.55;;;18.10;78.80;;;;;;6124069;23;20423;-75
2023/05/05 02:34:29;;;;;;;7.80;6.15;;;18.00;79.00;;;;;;6124838;23;20421;-75
2023/05/05 02:36:59;;;;;;;7.78;6.40;;;18.00;79.40;;;;;;6124770;23;20010;-75
2023/05/05 02:39:30;;;;;;;11.68;6.88;;;17.90;79.50;;;;;;6125873;23;20028;-74
2023/05/05 02:41:58;;;;;;;7.72;6.22;;;17.90;80.10;;;;;;6124644;23;20009;-75
2023/05/05 02:44:26;;;;;;;8.80;6.55;;;17.80;80.40;;;;;;6124980;23;20002;-75
2023/05/05 02:46:53;;;;;;;8.23;6.78;;;17.80;80.60;;;;;;6124330;23;20436;-75
2023/05/05 02:49:19;;;;;;;10.38;7.22;;;17.80;80.90;;;;;;6124872;23;20460;-75
2023/05/05 02:51:45;;;;;;;9.68;7.38;;;17.80;81.00;;;;;;6124592;23;20057;-74
2023/05/05 02:54:11;;;;;;;10.20;7.32;;;17.80;81.10;;;;;;6124601;23;20332;-75
2023/05/05 02:56:50;;;;;;;10.23;7.35;;;17.80;81.50;;;;;;6124912;23;20013;-75
2023/05/05 02:59:46;;;;;;;11.25;7.38;;;17.80;81.50;;;;;;6124641;23;20034;-75
2023/05/05 03:02:22;;;;;;;10.57;8.13;;;17.70;81.60;;;;;;6124177;23;20503;-74
2023/05/05 03:04:53;;;;;;;9.15;6.78;;;17.70;81.90;;;;;;6125060;23;20053;-75
2023/05/05 03:07:35;;;;;;;10.15;8.30;;;17.70;81.90;;;;;;6125238;23;19998;-74
2023/05/05 03:10:15;;;;;;;8.77;7.50;;;17.60;82.40;;;;;;6124921;23;19998;-75
2023/05/05 03:12:57;;;;;;;10.30;8.07;;;17.60;82.70;;;;;;6125052;23;20009;-74
2023/05/05 03:15:28;;;;;;;9.75;8.05;;;17.60;83.10;;;;;;6124946;23;20006;-75
2023/05/05 03:17:57;;;;;;;11.48;8.10;;;17.60;83.30;;;;;;6124670;23;20310;-75
2023/05/05 03:20:23;;;;;;;9.57;7.60;;;17.60;83.50;;;;;;6123472;23;20002;-76
2023/05/05 03:22:50;;;;;;;10.38;8.07;;;17.60;83.60;;;;;;6125820;23;20002;-76
2023/05/05 03:25:16;;;;;;;10.63;8.00;;;17.60;83.90;;;;;;6100030;23;20092;-76
2023/05/05 03:27:41;;;;;;;10.23;8.00;;;17.60;83.80;;;;;;6125166;23;20004;-76
2023/05/05 03:30:08;;;;;;;9.82;8.30;;;17.60;83.80;;;;;;6125399;23;20084;-76
2023/05/05 03:32:33;;;;;;;10.82;8.95;;;17.60;83.90;;;;;;6098834;23;20006;-75
2023/05/05 03:34:59;;;;;;;11.70;8.52;;;17.60;84.10;;;;;;6124777;23;20369;-75
2023/05/05 03:37:25;;;;;;;9.45;8.13;;;17.50;84.20;;;;;;6124579;23;20426;-75
2023/05/05 03:39:51;;;;;;;12.23;9.30;;;17.50;84.40;;;;;;6124586;23;20009;-75
2023/05/05 03:42:16;;;;;;;11.38;7.90;;;17.50;84.40;;;;;;6124386;23;20013;-76
2023/05/05 03:44:42;;;;;;;10.15;8.32;;;17.40;84.60;;;;;;6124152;23;20061;-76
2023/05/05 03:47:08;;;;;;;10.88;9.25;;;17.40;84.70;;;;;;6124096;23;20006;-76
2023/05/05 03:49:33;;;;;;;10.15;8.82;;;17.40;84.90;;;;;;6124193;23;20013;-76
2023/05/05 03:51:59;;;;;;;10.82;8.43;;;17.40;85.20;;;;;;6124662;23;20006;-76
2023/05/05 03:54:25;;;;;;;10.57;9.13;;;17.40;85.40;;;;;;6124702;23;20006;-76
2023/05/05 03:56:50;;;;;;;11.30;9.27;;;17.40;85.30;;;;;;6123833;23;20084;-76
2023/05/05 03:59:16;;;;;;;11.00;8.98;;;17.40;85.30;;;;;;6124235;23;20006;-77
2023/05/05 04:01:43;;;;;;;11.18;9.40;;;17.40;85.30;;;;;;6123649;23;20002;-77
2023/05/05 04:04:09;;;;;;;10.35;8.98;;;17.40;85.40;;;;;;6098026;23;20417;-76
2023/05/05 04:06:35;;;;;;;12.20;8.80;;;17.40;85.60;;;;;;6126307;23;20002;-77
2023/05/05 04:09:00;;;;;;;11.48;8.70;;;17.40;85.60;;;;;;6126518;23;20008;-79
2023/05/05 04:11:26;;;;;;;11.57;9.55;;;17.40;85.70;;;;;;6126100;23;20314;-79
2023/05/05 04:13:52;;;;;;;12.57;9.52;;;17.40;85.70;;;;;;6126180;23;20056;-79
2023/05/05 04:16:18;;;;;;;11.80;9.57;;;17.30;85.60;;;;;;6125576;23;20006;-79
2023/05/05 04:18:44;;;;;;;13.18;8.88;;;17.30;85.70;;;;;;6126710;23;20002;-79
2023/05/05 04:21:09;;;;;;;11.30;9.52;;;17.30;85.60;;;;;;6124930;23;20050;-79
2023/05/05 04:23:35;;;;;;;11.07;9.25;;;17.30;85.90;;;;;;6125746;23;20441;-78
2023/05/05 04:26:01;;;;;;;10.95;9.07;;;17.30;86.00;;;;;;6125599;23;20077;-77
2023/05/05 04:28:26;;;;;;;12.80;9.70;;;17.20;86.00;;;;;;6099703;23;19998;-77
2023/05/05 04:30:52;;;;;;;10.40;9.23;;;17.20;86.30;;;;;;6124576;23;20002;-77
2023/05/05 04:33:18;;;;;;;12.38;10.35;;;17.20;86.70;;;;;;6124514;23;20009;-77
2023/05/05 04:35:43;;;;;;;11.82;10.02;;;17.30;86.70;;;;;;6126193;23;20480;-77
2023/05/05 04:38:09;;;;;;;12.95;10.40;;;17.30;86.80;;;;;;6125727;23;20439;-77
2023/05/05 04:40:39;;;;;;;12.55;9.57;;;17.30;86.90;;;;;;6125504;23;20301;-77
2023/05/05 04:43:05;;;;;;;13.43;10.32;;;17.30;86.80;;;;;;6125683;23;20010;-76
2023/05/05 04:45:31;;;;;;;11.40;9.77;;;17.30;86.80;;;;;;6126301;23;20313;-78
2023/05/05 04:47:57;;;;;;;11.98;9.68;;;17.30;86.80;;;;;;6125476;23;20004;-78
2023/05/05 04:50:22;;;;;;;11.05;9.48;;;17.30;86.80;;;;;;6126475;23;20077;-78
2023/05/05 04:52:48;;;;;;;12.23;9.60;;;17.20;86.80;;;;;;6126078;23;20002;-79
2023/05/05 04:55:14;;;;;;;10.27;9.00;;;17.20;86.80;;;;;;6126053;23;20002;-78
2023/05/05 04:57:39;;;;;;;12.18;9.55;;;17.20;87.00;;;;;;6125930;23;20362;-76
2023/05/05 05:00:06;;;;;;;14.27;10.30;;;17.20;87.30;;;;;;6126019;23;20321;-77
2023/05/05 05:02:32;;;;;;;11.65;9.68;;;17.20;87.30;;;;;;6125750;23;20069;-77
2023/05/05 05:04:57;;;;;;;12.85;10.55;;;17.30;87.30;;;;;;6125067;23;20022;-77
2023/05/05 05:07:23;;;;;;;14.55;10.30;;;17.30;87.40;;;;;;6123743;23;20291;-78
2023/05/05 05:09:49;;;;;;;13.60;11.10;;;17.30;87.30;;;;;;6096442;23;20076;-77
2023/05/05 05:12:14;;;;;;;13.32;10.68;;;17.40;87.30;;;;;;6123626;23;20002;-78
2023/05/05 05:14:40;;;;;;;12.60;10.10;;;17.40;87.10;;;;;;6126165;23;20012;-79
2023/05/05 05:17:06;;;;;;;13.45;9.38;;;17.40;87.20;;;;;;6125874;23;20117;-79
2023/05/05 05:19:31;;;;;;;12.05;9.45;;;17.30;87.20;;;;;;6126154;23;20342;-75
2023/05/05 05:21:57;;;;;;;10.10;8.98;;;17.30;87.30;;;;;;6126486;23;20076;-74
2023/05/05 05:24:24;;;;;;;11.75;9.90;;;17.30;87.60;;;;;;6126212;23;19998;-75
2023/05/05 05:26:50;;;;;;;12.15;9.75;;;17.30;87.50;;;;;;6125987;23;20025;-75
2023/05/05 05:29:16;;;;;;;14.05;10.98;;;17.30;87.70;;;;;;6125940;23;20005;-77
2023/05/05 05:31:42;;;;;;;13.43;10.65;;;17.20;87.80;;;;;;6098813;23;20021;-76
2023/05/05 05:34:07;;;;;;;12.75;9.43;;;17.20;88.00;;;;;;6126242;23;20409;-77
2023/05/05 05:36:33;;;;;;;12.82;10.02;;;17.30;88.00;;;;;;6126829;23;20038;-76
2023/05/05 05:38:58;;;;;;;13.35;10.13;;;17.30;88.00;;;;;;6126785;23;20012;-76
2023/05/05 05:41:24;;;;;;;12.90;10.07;;;17.40;88.10;;;;;;6126258;23;20085;-76
2023/05/05 05:43:50;;;;;;;13.05;10.75;;;17.50;88.00;;;;;;6125755;23;20413;-76
2023/05/05 05:46:16;;;;;;;14.65;11.43;;;17.60;87.70;;;;;;6100033;23;20569;-76
2023/05/05 05:48:41;;;;;;;13.30;11.05;;;17.60;87.60;;;;;;6126074;23;20005;-76
2023/05/05 05:51:07;;;;;;;15.38;11.02;;;17.70;87.30;;;;;;6100480;23;20336;-76
2023/05/05 05:53:33;;;;;;;12.35;9.70;;;17.80;87.10;;;;;;6125647;23;20002;-76
2023/05/05 05:56:00;;;;;;;14.07;11.15;;;17.80;87.10;;;;;;6124416;23;20081;-75
2023/05/05 05:58:25;;;;;;;15.13;11.18;;;17.90;86.40;;;;;;6125964;23;20428;-76
2023/05/05 06:00:51;;;;;;;12.88;9.98;;;17.90;86.10;;;;;;6125596;23;20009;-76
2023/05/05 06:03:17;;;;;;;12.32;9.15;;;17.90;85.90;;;;;;6125599;23;20068;-76
2023/05/05 06:05:45;;;;;;;14.05;10.98;;;17.90;85.80;;;;;;6125983;23;20002;-79
2023/05/05 06:08:10;;;;;;;18.33;12.45;;;18.00;85.90;;;;;;6126671;23;20013;-77
2023/05/05 06:10:36;;;;;;;12.20;9.88;;;18.00;85.90;;;;;;6126311;23;20006;-76
2023/05/05 06:13:02;;;;;;;13.10;9.82;;;18.10;86.40;;;;;;6126315;23;20087;-77
2023/05/05 06:15:27;;;;;;;13.35;10.60;;;18.10;85.70;;;;;;6126028;23;20006;-81
2023/05/05 06:17:53;;;;;;;12.40;9.52;;;18.10;85.60;;;;;;6125488;23;20031;-76
2023/05/05 06:20:19;;;;;;;13.23;10.02;;;18.10;85.30;;;;;;6126037;23;20002;-78
2023/05/05 06:22:44;;;;;;;12.68;10.52;;;18.10;85.20;;;;;;6126170;23;19998;-80
2023/05/05 06:25:10;;;;;;;14.00;10.05;;;18.10;85.40;;;;;;6100007;23;20006;-80
2023/05/05 06:27:36;;;;;;;15.65;10.57;;;18.20;85.30;;;;;;6099835;23;20013;-79
2023/05/05 06:30:02;;;;;;;13.00;10.00;;;18.20;85.40;;;;;;6126392;23;20033;-78
2023/05/05 06:32:27;;;;;;;11.98;10.25;;;18.20;85.20;;;;;;6126273;23;20465;-79
2023/05/05 06:34:53;;;;;;;13.68;10.18;;;18.30;85.20;;;;;;6126807;23;20409;-77
2023/05/05 06:37:19;;;;;;;12.75;9.95;;;18.40;85.30;;;;;;6126135;23;20409;-77
2023/05/05 06:39:45;;;;;;;18.85;9.35;;;18.40;85.50;;;;;;6125882;23;20372;-76
2023/05/05 06:42:10;;;;;;;14.55;9.43;;;18.50;84.90;;;;;;6126105;23;20014;-76
2023/05/05 06:44:36;;;;;;;12.75;9.48;;;18.50;84.80;;;;;;6126329;23;20020;-76
2023/05/05 06:47:02;;;;;;;12.02;9.77;;;18.60;84.70;;;;;;6126201;23;20002;-79
2023/05/05 06:49:28;;;;;;;14.43;10.13;;;18.70;84.60;;;;;;6126203;23;20430;-77
2023/05/05 06:51:54;;;;;;;18.25;10.70;;;18.80;84.50;;;;;;6126433;23;20002;-76
2023/05/05 06:54:20;;;;;;;12.45;9.88;;;18.80;84.30;;;;;;6125229;23;20002;-78
2023/05/05 06:56:45;;;;;;;11.90;9.77;;;18.80;84.20;;;;;;6098332;23;20402;-78
2023/05/05 06:59:11;;;;;;;9.68;8.57;;;18.90;84.30;;;;;;6125357;23;20002;-76
2023/05/05 07:01:37;;;;;;;13.07;9.63;;;18.90;84.10;;;;;;6126118;23;20010;-77
2023/05/05 07:04:03;;;;;;;13.57;10.40;;;19.00;83.90;;;;;;6126228;23;20029;-77
2023/05/05 07:06:28;;;;;;;15.40;9.80;;;19.10;83.70;;;;;;6126173;23;20060;-78
2023/05/05 07:08:54;;;;;;;12.15;9.48;;;19.10;83.70;;;;;;6126447;23;20451;-77
2023/05/05 07:11:20;;;;;;;11.90;9.90;;;19.20;83.70;;;;;;6126293;23;20041;-78
2023/05/05 07:13:48;;;;;;;10.77;9.00;;;19.30;83.50;;;;;;6100513;23;20032;-78
2023/05/05 07:16:13;;;;;;;12.20;9.02;;;19.40;83.50;;;;;;6100532;23;20010;-79
2023/05/05 07:18:39;;;;;;;12.30;9.75;;;19.50;83.30;;;;;;6126629;23;20041;-79
2023/05/05 07:21:05;;;;;;;14.20;9.77;;;19.50;83.00;;;;;;6100276;23;20053;-78
2023/05/05 07:23:32;;;;;;;12.25;10.48;;;19.50;82.90;;;;;;6126138;23;20010;-79
2023/05/05 07:25:58;;;;;;;12.88;10.25;;;19.60;82.90;;;;;;6126663;23;19997;-78
2023/05/05 07:28:24;;;;;;;12.68;10.10;;;19.70;83.00;;;;;;6100126;23;20010;-78
2023/05/05 07:30:50;;;;;;;14.32;9.00;;;19.70;82.80;;;;;;6126474;23;20081;-77
2023/05/05 07:33:17;;;;;;;10.52;9.38;;;19.80;82.70;;;;;;6125742;23;20065;-78
2023/05/05 07:35:43;;;;;;;11.75;8.75;;;19.90;82.70;;;;;;6125467;23;20373;-78
2023/05/05 07:38:09;;;;;;;10.20;8.10;;;20.00;82.70;;;;;;6125719;23;20002;-77
2023/05/05 07:40:35;;;;;;;11.00;8.57;;;20.10;82.20;;;;;;6127943;23;20519;-77
2023/05/05 07:43:01;;;;;;;12.77;9.73;;;20.10;81.70;;;;;;6128003;23;20010;-77
2023/05/05 07:45:27;;;;;;;17.65;9.07;;;20.20;81.30;;;;;;6127815;23;20333;-77
2023/05/05 07:47:53;;;;;;;12.77;9.43;;;20.20;81.10;;;;;;6128082;23;20002;-77
2023/05/05 07:50:19;;;;;;;12.38;9.25;;;20.20;81.10;;;;;;6128046;23;19998;-77
2023/05/05 07:52:45;;;;;;;11.13;9.57;;;20.30;80.70;;;;;;6127480;23;20045;-77
2023/05/05 07:55:17;;;;;;;13.27;9.23;;;20.30;80.80;;;;;;6127951;23;20010;-77
2023/05/05 07:57:43;;;;;;;10.43;8.45;;;20.40;81.40;;;;;;6128050;23;19998;-77
2023/05/05 08:00:09;;;;;;;10.18;8.35;;;20.50;81.50;;;;;;6127733;23;20017;-76
2023/05/05 08:02:35;;;;;;;10.88;7.55;;;20.60;81.80;;;;;;6127333;23;19998;-78
2023/05/05 08:05:00;;;;;;;12.38;8.15;;;20.60;81.60;;;;;;6127454;23;19998;-78
2023/05/05 08:07:26;;;;;;;12.40;8.15;;;20.70;81.60;;;;;;6127762;23;20002;-77
2023/05/05 08:09:52;;;;;;;10.82;8.70;;;20.80;81.30;;;;;;6130245;23;20002;-77
2023/05/05 08:12:18;;;;;;;9.73;7.32;;;20.80;80.70;;;;;;6128047;23;20009;-78
2023/05/05 08:14:47;;;;;;;9.85;7.72;;;20.90;80.40;;;;;;6128043;23;20504;-77
2023/05/05 08:17:13;;;;;;;7.78;6.72;;;21.00;81.00;;;;;;6101960;23;20010;-78
2023/05/05 08:19:39;;;;;;;8.57;7.47;;;21.10;81.10;;;;;;6127657;23;20305;-78
2023/05/05 08:22:04;;;;;;;11.80;8.40;;;21.20;80.80;;;;;;6128060;23;20002;-78
2023/05/05 08:24:30;;;;;;;8.75;7.72;;;21.20;80.80;;;;;;6127801;23;20081;-78
2023/05/05 08:26:56;;;;;;;10.05;7.88;;;21.30;79.50;;;;;;6127998;23;19998;-78
2023/05/05 08:29:21;;;;;;;9.52;7.93;;;21.40;80.10;;;;;;6127665;23;20002;-78
2023/05/05 08:31:47;;;;;;;8.52;6.38;;;21.50;80.30;;;;;;6127537;23;20002;-77
2023/05/05 08:34:13;;;;;;;15.93;8.02;;;21.60;79.90;;;;;;6127496;23;20012;-77
2023/05/05 08:36:38;;;;;;;7.97;6.07;;;21.70;78.80;;;;;;6127386;23;20312;-77
2023/05/05 08:39:04;;;;;;;7.47;5.88;;;21.80;79.00;;;;;;6128123;23;20002;-78
2023/05/05 08:41:29;;;;;;;8.30;6.13;;;21.90;78.30;;;;;;6101467;23;20365;-77
2023/05/05 08:43:55;;;;;;;5.57;4.88;;;21.90;77.70;;;;;;6127631;23;20030;-77
2023/05/05 08:46:22;;;;;;;7.25;5.55;;;22.10;76.90;;;;;;6126414;23;20057;-78
2023/05/05 08:48:50;;;;;;;6.28;5.43;;;22.20;77.20;;;;;;6101502;23;20044;-78
2023/05/05 08:51:18;;;;;;;7.22;6.50;;;22.30;76.90;;;;;;6127220;23;20409;-78
2023/05/05 08:53:53;;;;;;;13.43;7.72;;;22.30;75.90;;;;;;6102062;23;20002;-78
2023/05/05 08:56:20;;;;;;;6.72;5.20;;;22.40;75.30;;;;;;6127292;23;20033;-78
2023/05/05 08:58:47;;;;;;;6.40;4.38;;;22.40;75.40;;;;;;6126985;23;20424;-78
2023/05/05 09:01:14;;;;;;;13.23;8.43;;;22.50;75.40;;;;;;6127506;23;20307;-78
2023/05/05 09:03:39;;;;;;;19.42;9.05;;;22.60;76.10;;;;;;6127005;23;20061;-77
2023/05/05 09:06:06;;;;;;;10.07;8.07;;;22.70;76.70;;;;;;6127233;23;20006;-77
2023/05/05 09:08:37;;;;;;;10.90;7.50;;;22.80;76.60;;;;;;6126969;23;20002;-78
2023/05/05 09:11:03;;;;;;;8.23;5.80;;;22.90;76.10;;;;;;6126940;23;20064;-77
2023/05/05 09:13:31;;;;;;;10.90;6.00;;;23.00;75.40;;;;;;6127496;23;20006;-79
2023/05/05 09:15:58;;;;;;;9.27;5.80;;;23.10;75.50;;;;;;6127277;23;20005;-78
2023/05/05 09:18:24;;;;;;;11.45;4.95;;;23.30;74.60;;;;;;6125962;23;20013;-79
2023/05/05 09:20:50;;;;;;;5.28;2.92;;;23.40;72.20;;;;;;6126320;23;20005;-78
2023/05/05 09:23:18;;;;;;;7.30;3.85;;;23.50;70.80;;;;;;6126474;23;20002;-77
2023/05/05 09:25:46;;;;;;;3.30;2.70;;;23.50;68.30;;;;;;6126955;23;19998;-76
2023/05/05 09:28:17;;;;;;;3.45;3.15;;;23.50;69.60;;;;;;6126760;23;20002;-76
2023/05/05 09:30:45;;;;;;;3.33;2.60;;;23.70;70.00;;;;;;6101010;23;20014;-78
2023/05/05 09:33:12;;;;;;;4.85;3.55;;;23.70;70.10;;;;;;6126246;23;20782;-78
2023/05/05 09:35:55;;;;;;;4.38;3.42;;;23.80;69.90;;;;;;6126800;23;20006;-77
2023/05/05 09:38:22;;;;;;;14.93;6.65;;;24.00;68.70;;;;;;6126740;23;20058;-77
2023/05/05 09:40:52;;;;;;;13.45;8.85;;;24.00;69.90;;;;;;6126620;23;20002;-78
2023/05/05 09:43:19;;;;;;;;;;;24.10;70.30;;;;;;6126850;23;20348;-79
2023/05/05 09:45:47;;;;;;;13.32;9.13;;;24.20;70.30;;;;;;6126664;23;20385;-78
2023/05/05 09:48:26;;;;;;;12.00;8.13;;;24.30;70.30;;;;;;6100091;23;20350;-77
2023/05/05 09:50:52;;;;;;;16.17;9.15;;;24.40;70.90;;;;;;6126587;23;20013;-78
2023/05/05 09:53:18;;;;;;;11.07;7.35;;;24.50;71.00;;;;;;6126723;23;20010;-78
2023/05/05 09:55:57;;;;;;;13.65;7.22;;;24.70;70.70;;;;;;6126906;23;20010;-79
2023/05/05 09:58:24;;;;;;;10.20;7.60;;;24.80;70.40;;;;;;6125379;23;20341;-79
2023/05/05 10:00:50;;;;;;;9.23;6.78;;;24.90;69.80;;;;;;6100428;23;20002;-79
2023/05/05 10:03:16;;;;;;;7.30;5.22;;;24.90;69.30;;;;;;6125859;23;20005;-80
2023/05/05 10:06:01;;;;;;;8.73;5.65;;;25.00;68.70;;;;;;6125585;23;19998;-80
2023/05/05 10:08:30;;;;;;;11.43;8.45;;;25.20;69.20;;;;;;6126586;23;20010;-79
2023/05/05 10:11:02;;;;;;;10.18;6.85;;;25.30;69.10;;;;;;6126699;23;20036;-75
2023/05/05 10:13:33;;;;;;;11.35;7.50;;;25.40;69.60;;;;;;6126441;23;20017;-77
2023/05/05 10:16:02;;;;;;;10.07;7.18;;;25.50;69.70;;;;;;6126424;23;20006;-77
2023/05/05 10:18:29;;;;;;;10.73;7.80;;;25.70;69.70;;;;;;6126716;23;20016;-76
2023/05/05 10:21:00;;;;;;;8.25;6.75;;;25.80;69.40;;;;;;6126138;23;20030;-77
2023/05/05 10:24:08;;;;;;;9.70;7.93;;;25.90;68.80;;;;;;6125879;23;20853;-75
2023/05/05 10:26:39;;;;;;;13.63;9.55;;;26.00;68.40;;;;;;6126378;23;20002;-75
2023/05/05 10:29:12;;;;;;;13.52;10.10;;;26.00;68.10;;;;;;6126400;23;20028;-76
2023/05/05 10:31:46;;;;;;;11.65;8.20;;;26.10;68.10;;;;;;6126889;23;20005;-76
2023/05/05 10:34:34;;;;;;;12.70;7.65;;;26.20;67.80;;;;;;6127381;23;20002;-77
2023/05/05 10:37:00;;;;;;;9.13;7.45;;;26.20;67.30;;;;;;6102050;23;20009;-79
2023/05/05 10:39:27;;;;;;;9.15;7.18;;;26.30;68.40;;;;;;6130076;23;20034;-79
2023/05/05 10:41:53;;;;;;;7.35;6.65;;;26.30;67.90;;;;;;6129022;23;20081;-78
2023/05/05 10:44:19;;;;;;;8.85;7.95;;;26.40;67.90;;;;;;6127483;23;20420;-79
2023/05/05 10:46:46;;;;;;;7.93;6.45;;;26.60;67.60;;;;;;6127381;23;20350;-79
2023/05/05 10:49:34;;;;;;;10.98;7.50;;;26.60;67.40;;;;;;6126439;23;20080;-78
2023/05/05 10:52:32;;;;;;;8.35;6.25;;;26.70;67.30;;;;;;6125481;23;20006;-76
2023/05/05 10:55:10;;;;;;;8.30;6.15;;;26.80;67.00;;;;;;6125632;23;20355;-77
2023/05/05 10:57:40;;;;;;;8.55;7.32;;;26.90;67.00;;;;;;6126132;23;20013;-77
2023/05/05 11:00:07;;;;;;;14.23;10.77;;;27.00;66.40;;;;;;6125454;23;20010;-76
2023/05/05 11:02:34;;;;;;;8.57;7.38;;;27.00;64.70;;;;;;6125165;23;20061;-77
2023/05/05 11:05:20;;;;;;;10.07;8.35;;;27.00;66.00;;;;;;6125473;23;19998;-77
2023/05/05 11:07:51;;;;;;;10.52;8.18;;;27.10;65.60;;;;;;6125114;23;20009;-77
2023/05/05 11:10:19;;;;;;;7.97;7.05;;;27.20;65.30;;;;;;6127502;23;20077;-78
2023/05/05 11:12:50;;;;;;;8.43;6.57;;;27.30;66.00;;;;;;6126742;23;20006;-77
2023/05/05 11:15:28;;;;;;;7.10;6.40;;;27.40;66.10;;;;;;6127866;23;20005;-77
2023/05/05 11:17:58;;;;;;;7.55;5.93;;;27.50;65.00;;;;;;6126808;23;20010;-81
2023/05/05 11:20:50;;;;;;;;;;;27.50;65.10;;;;;;6128633;23;20002;-81
2023/05/05 11:23:19;;;;;;;9.60;7.03;;;27.60;65.30;;;;;;6082667;23;19907;-80
2023/05/05 11:25:45;;;;;;;9.07;7.45;;;27.80;65.10;;;;;;6126923;23;20005;-78
2023/05/05 11:28:16;;;;;;;7.60;5.78;;;27.90;64.10;;;;;;6126605;23;20005;-80
2023/05/05 11:30:53;;;;;;;5.57;4.97;;;28.00;64.10;;;;;;6130291;23;20005;-81
2023/05/05 11:33:36;;;;;;;5.70;4.22;;;28.20;62.30;;;;;;6126986;23;20009;-80
2023/05/05 11:36:10;;;;;;;11.10;5.63;;;28.40;62.00;;;;;;6126196;23;19998;-80
2023/05/05 11:38:39;;;;;;;8.63;5.22;;;28.70;60.30;;;;;;6125635;23;20023;-81
2023/05/05 11:41:31;;;;;;;11.30;6.70;;;29.00;61.60;;;;;;6100371;23;20014;-79
2023/05/05 11:44:28;;;;;;;10.40;6.70;;;29.40;61.00;;;;;;6091025;23;20432;-80
2023/05/05 11:46:58;;;;;;;6.70;5.55;;;29.70;60.10;;;;;;6101727;23;20002;-79
2023/05/05 11:49:27;;;;;;;;;;;29.70;59.30;;;;;;6127569;23;20073;-80
2023/05/05 11:52:12;;;;;;;6.88;5.22;;;29.80;57.00;;;;;;6127657;23;19901;-81
2023/05/05 11:54:49;;;;;;;5.97;4.32;;;30.00;55.90;;;;;;6125723;23;20084;-80
2023/05/05 11:57:20;;;;;;;6.68;5.75;;;30.10;56.80;;;;;;6126236;23;19998;-80
2023/05/05 11:59:51;;;;;;;7.22;4.85;;;30.20;56.50;;;;;;6125555;23;20029;-77
2023/05/05 12:02:18;;;;;;;5.85;5.10;;;30.40;57.00;;;;;;6126432;23;20009;-79
2023/05/05 12:04:45;;;;;;;7.78;5.47;;;30.70;56.20;;;;;;6124960;23;20002;-78
2023/05/05 12:07:18;;;;;;;9.63;6.78;;;30.90;54.60;;;;;;6127087;23;20002;-78
2023/05/05 12:09:45;;;;;;;7.18;4.82;;;30.90;53.90;;;;;;6126464;23;20006;-82
2023/05/05 12:12:11;;;;;;;8.57;4.45;;;30.90;55.20;;;;;;6127337;23;20006;-82
2023/05/05 12:14:53;;;;;;;5.95;4.30;;;31.10;55.90;;;;;;6127307;23;20305;-82
2023/05/05 12:17:20;;;;;;;5.68;5.07;;;31.20;53.80;;;;;;6099274;23;20013;-81
2023/05/05 12:19:50;;;;;;;5.68;4.55;;;31.30;53.50;;;;;;6126896;23;20002;-82
2023/05/05 12:22:24;;;;;;;7.60;4.95;;;31.40;53.40;;;;;;6125600;23;20004;-83
2023/05/05 12:24:57;;;;;;;6.72;4.40;;;31.40;52.70;;;;;;6127413;23;20002;-81
2023/05/05 12:27:25;;;;;;;11.93;5.68;;;31.50;53.70;;;;;;6127627;23;20033;-80
2023/05/05 12:29:53;;;;;;;6.63;4.70;;;31.50;52.20;;;;;;6127568;23;20010;-83
2023/05/05 12:32:24;;;;;;;6.40;4.75;;;31.50;52.70;;;;;;6127122;23;20052;-81
2023/05/05 12:34:56;;;;;;;6.53;4.68;;;31.40;53.00;;;;;;6127411;23;20001;-81
2023/05/05 12:37:22;;;;;;;5.88;4.50;;;31.50;53.10;;;;;;6100630;23;20036;-82
2023/05/05 12:39:53;;;;;;;10.38;5.68;;;31.50;52.10;;;;;;6126625;23;20060;-81
2023/05/05 12:42:20;;;;;;;5.60;4.57;;;31.50;51.60;;;;;;6100200;23;20069;-82
2023/05/05 12:44:45;;;;;;;7.03;4.38;;;31.50;52.80;;;;;;6127320;23;19998;-80
2023/05/05 12:47:12;;;;;;;6.70;4.75;;;31.50;52.70;;;;;;6127323;23;19998;-80
2023/05/05 12:49:51;;;;;;;6.47;5.55;;;31.50;52.70;;;;;;6127451;23;20012;-81